Time;durP1;ratioP1;P1;durP2;ratioP2;P2;SDS_P1;SDS_P2;PMS_P1;PMS_P2;Temp;Humidity;BMP_temperature;BMP_pressure;BME280_temperature;BME280_humidity;BME280_pressure;Samples;Min_cycle;Max_cycle;Signal;HPM_P1;HPM_P2
2021/08/30 00:00:29;;;;;;;11.20;7.73;;;;;;;;;;5022910;28;20556;-80
2021/08/30 00:02:54;;;;;;;15.50;8.83;;;;;;;;;;5022169;28;20221;-80
2021/08/30 00:05:20;;;;;;;15.07;8.47;;;;;;;;;;5019731;28;20228;-80
2021/08/30 00:07:47;;;;;;;11.93;8.20;;;;;;;;;;5024822;28;20173;-80
2021/08/30 00:10:14;;;;;;;12.13;7.90;;;;;;;;;;5024151;28;20656;-80
2021/08/30 00:12:43;;;;;;;10.80;8.30;;;;;;;;;;5023047;28;20445;-80
2021/08/30 00:15:09;;;;;;;9.47;7.60;;;;;;;;;;5022077;28;20431;-80
2021/08/30 00:17:34;;;;;;;12.70;8.47;;;;;;;;;;5023021;28;20474;-80
2021/08/30 00:19:59;;;;;;;15.87;9.17;;;;;;;;;;5023268;28;20420;-80
2021/08/30 00:22:24;;;;;;;15.20;8.03;;;;;;;;;;5023206;28;20176;-79
2021/08/30 00:24:50;;;;;;;16.93;8.37;;;;;;;;;;5021445;28;20223;-80
2021/08/30 00:27:15;;;;;;;17.40;8.97;;;;;;;;;;5021867;28;20240;-80
2021/08/30 00:29:40;;;;;;;12.60;8.40;;;;;;;;;;5021893;28;20184;-79
2021/08/30 00:32:05;;;;;;;13.00;8.70;;;;;;;;;;5022829;28;20177;-80
2021/08/30 00:34:31;;;;;;;13.53;8.27;;;;;;;;;;5037408;28;20207;-80
2021/08/30 00:36:56;;;;;;;15.07;9.20;;;;;;;;;;5019564;28;20201;-80
2021/08/30 00:39:22;;;;;;;12.73;8.63;;;;;;;;;;5018244;28;20185;-80
2021/08/30 00:41:49;;;;;;;12.70;8.00;;;;;;;;;;5021623;28;20176;-80
2021/08/30 00:44:14;;;;;;;12.90;8.77;;;;;;;;;;5021724;28;20261;-80
2021/08/30 00:46:39;;;;;;;10.53;7.93;;;;;;;;;;5023344;28;20948;-80
2021/08/30 00:49:05;;;;;;;10.77;8.40;;;;;;;;;;5021386;28;20187;-80
2021/08/30 00:51:30;;;;;;;12.40;8.23;;;;;;;;;;5019624;28;20184;-80
2021/08/30 00:53:58;;;;;;;12.83;8.40;;;;;;;;;;5020279;28;20256;-80
2021/08/30 00:56:24;;;;;;;13.80;8.40;;;;;;;;;;5021039;28;20203;-80
2021/08/30 00:58:49;;;;;;;9.60;8.07;;;;;;;;;;5021292;28;20412;-80
2021/08/30 01:01:14;;;;;;;9.77;7.90;;;;;;;;;;5022755;28;20526;-80
2021/08/30 01:03:39;;;;;;;12.40;7.37;;;;;;;;;;5024676;28;20180;-80
2021/08/30 01:06:14;;;;;;;10.03;7.50;;;;;;;;;;5025896;28;20226;-80
2021/08/30 01:08:43;;;;;;;13.53;8.67;;;;;;;;;;5025923;28;20703;-80
2021/08/30 01:11:14;;;;;;;10.80;7.87;;;;;;;;;;5024072;28;20445;-80
2021/08/30 01:13:50;;;;;;;14.23;7.70;;;;;;;;;;5038135;28;20423;-80
2021/08/30 01:16:16;;;;;;;11.60;9.07;;;;;;;;;;5023920;28;20577;-80
2021/08/30 01:18:42;;;;;;;9.37;7.40;;;;;;;;;;5025201;28;20494;-80
2021/08/30 01:21:33;;;;;;;11.63;8.30;;;;;;;;;;5025576;28;20840;-80
2021/08/30 01:24:02;;;;;;;12.37;8.70;;;;;;;;;;5024492;28;20196;-80
2021/08/30 01:26:32;;;;;;;14.23;8.50;;;;;;;;;;5025318;28;20891;-80
2021/08/30 01:29:01;;;;;;;13.77;8.67;;;;;;;;;;5025696;28;20423;-80
2021/08/30 01:31:50;;;;;;;12.17;8.77;;;;;;;;;;5026023;28;20419;-80
2021/08/30 01:34:16;;;;;;;10.63;8.53;;;;;;;;;;5020621;28;20435;-80
2021/08/30 01:36:43;;;;;;;14.20;8.37;;;;;;;;;;5026969;28;20459;-80
2021/08/30 01:39:10;;;;;;;12.77;8.20;;;;;;;;;;5027394;28;20422;-80
2021/08/30 01:41:36;;;;;;;11.17;8.03;;;;;;;;;;5026467;28;20477;-80
2021/08/30 01:44:02;;;;;;;10.17;8.53;;;;;;;;;;5025370;28;20885;-80
2021/08/30 01:46:27;;;;;;;17.03;9.13;;;;;;;;;;5023851;28;20419;-80
2021/08/30 01:48:53;;;;;;;10.40;9.00;;;;;;;;;;5026033;28;20184;-80
2021/08/30 01:51:20;;;;;;;11.53;9.00;;;;;;;;;;5026196;28;20189;-80
2021/08/30 01:53:46;;;;;;;13.23;8.30;;;;;;;;;;5024324;28;20181;-80
2021/08/30 01:56:13;;;;;;;9.93;8.87;;;;;;;;;;5023832;28;20541;-80
2021/08/30 02:01:04;;;;;;;11.50;8.73;;;;;;;;;;5024593;28;20415;-80
2021/08/30 02:03:30;;;;;;;12.00;9.43;;;;;;;;;;5025465;28;20212;-80
2021/08/30 02:05:59;;;;;;;10.90;9.10;;;;;;;;;;5024162;28;20204;-81
2021/08/30 02:08:25;;;;;;;14.80;9.37;;;;;;;;;;5026549;28;20454;-80
2021/08/30 02:10:53;;;;;;;12.47;8.77;;;;;;;;;;5024595;28;20412;-80
2021/08/30 02:13:19;;;;;;;13.50;9.00;;;;;;;;;;5024268;28;20466;-80
2021/08/30 02:15:45;;;;;;;12.30;8.90;;;;;;;;;;5025105;28;20464;-80
2021/08/30 02:18:13;;;;;;;12.00;8.97;;;;;;;;;;5016705;28;20534;-80
2021/08/30 02:20:43;;;;;;;11.50;8.27;;;;;;;;;;5024504;28;20419;-80
2021/08/30 02:23:08;;;;;;;10.67;9.17;;;;;;;;;;5024829;28;20404;-80
2021/08/30 02:25:34;;;;;;;10.77;8.83;;;;;;;;;;5021674;28;20971;-80
2021/08/30 02:28:00;;;;;;;12.47;9.50;;;;;;;;;;5022530;28;20177;-80
2021/08/30 02:30:36;;;;;;;9.70;8.23;;;;;;;;;;5019462;28;20416;-80
2021/08/30 02:33:03;;;;;;;12.23;8.80;;;;;;;;;;5023897;28;20415;-80
2021/08/30 02:35:30;;;;;;;10.00;7.90;;;;;;;;;;5024953;28;20441;-80
2021/08/30 02:37:56;;;;;;;11.80;8.80;;;;;;;;;;5024786;28;20472;-80
2021/08/30 02:40:23;;;;;;;11.50;8.30;;;;;;;;;;5025320;28;20425;-80
2021/08/30 02:42:49;;;;;;;9.03;7.80;;;;;;;;;;5023514;28;20419;-80
2021/08/30 02:45:15;;;;;;;9.60;8.03;;;;;;;;;;5023685;28;20527;-80
2021/08/30 02:47:41;;;;;;;12.97;9.00;;;;;;;;;;5023687;28;20533;-81
2021/08/30 02:50:07;;;;;;;13.80;9.20;;;;;;;;;;5024476;28;20200;-80
2021/08/30 02:52:34;;;;;;;11.40;8.60;;;;;;;;;;5023670;28;20173;-80
2021/08/30 02:55:00;;;;;;;10.40;8.53;;;;;;;;;;5023017;28;20957;-80
2021/08/30 02:57:25;;;;;;;8.77;7.83;;;;;;;;;;5025231;28;20461;-80
2021/08/30 02:59:52;;;;;;;10.47;8.60;;;;;;;;;;5021025;28;20657;-80
2021/08/30 03:02:20;;;;;;;10.37;8.17;;;;;;;;;;5019866;28;20197;-80
2021/08/30 03:04:46;;;;;;;12.10;8.13;;;;;;;;;;5018997;28;20469;-80
2021/08/30 03:07:12;;;;;;;11.70;8.70;;;;;;;;;;5021786;28;20443;-80
2021/08/30 03:09:37;;;;;;;10.67;9.30;;;;;;;;;;5023087;28;20173;-80
2021/08/30 03:12:03;;;;;;;10.37;8.40;;;;;;;;;;5023423;28;20415;-80
2021/08/30 03:14:29;;;;;;;10.50;8.40;;;;;;;;;;5023189;28;20330;-80
2021/08/30 03:16:56;;;;;;;9.70;7.97;;;;;;;;;;5023533;28;20550;-80
2021/08/30 03:19:23;;;;;;;9.80;7.90;;;;;;;;;;5023393;28;20177;-80
2021/08/30 03:21:49;;;;;;;12.63;9.10;;;;;;;;;;5023461;28;20474;-80
2021/08/30 03:24:15;;;;;;;10.30;9.10;;;;;;;;;;5021358;28;20456;-79
2021/08/30 03:26:41;;;;;;;9.53;7.70;;;;;;;;;;5022646;28;20407;-80
2021/08/30 03:29:07;;;;;;;11.03;8.20;;;;;;;;;;5023405;28;20403;-80
2021/08/30 03:31:34;;;;;;;12.53;8.67;;;;;;;;;;5023152;28;20176;-80
2021/08/30 03:34:00;;;;;;;10.10;7.90;;;;;;;;;;5023677;28;20415;-80
2021/08/30 03:36:26;;;;;;;10.23;9.23;;;;;;;;;;5019091;28;20502;-80
2021/08/30 03:38:51;;;;;;;10.53;8.67;;;;;;;;;;5019923;28;20925;-80
2021/08/30 03:41:17;;;;;;;11.30;8.80;;;;;;;;;;5018327;28;20420;-80
2021/08/30 03:43:43;;;;;;;10.10;9.10;;;;;;;;;;5022861;28;20179;-80
2021/08/30 03:46:09;;;;;;;11.93;9.40;;;;;;;;;;5021648;28;20189;-80
2021/08/30 03:48:34;;;;;;;10.70;8.90;;;;;;;;;;5024482;28;20231;-80
2021/08/30 03:51:00;;;;;;;11.40;10.20;;;;;;;;;;5021437;28;20403;-80
2021/08/30 03:53:26;;;;;;;9.87;8.87;;;;;;;;;;5023304;28;20172;-80
2021/08/30 03:55:51;;;;;;;8.97;8.10;;;;;;;;;;5023805;28;20297;-80
2021/08/30 03:58:18;;;;;;;11.80;9.50;;;;;;;;;;5024201;28;20177;-80
2021/08/30 04:00:43;;;;;;;12.20;9.43;;;;;;;;;;5024610;28;20171;-80
2021/08/30 04:03:11;;;;;;;10.60;9.13;;;;;;;;;;5039465;28;20420;-80
2021/08/30 04:05:36;;;;;;;11.70;8.63;;;;;;;;;;5023274;28;20634;-81
2021/08/30 04:08:02;;;;;;;12.83;9.47;;;;;;;;;;5022900;28;20462;-81
2021/08/30 04:10:28;;;;;;;11.40;9.03;;;;;;;;;;5021565;28;20165;-81
2021/08/30 04:12:54;;;;;;;9.60;8.60;;;;;;;;;;5020792;28;20173;-81
2021/08/30 04:15:20;;;;;;;11.40;8.43;;;;;;;;;;5021474;28;20438;-80
2021/08/30 04:17:45;;;;;;;9.77;8.23;;;;;;;;;;5020272;28;20454;-80
2021/08/30 04:20:10;;;;;;;11.23;8.83;;;;;;;;;;5023163;28;20175;-80
2021/08/30 04:22:36;;;;;;;11.00;9.27;;;;;;;;;;5024508;28;20164;-80
2021/08/30 04:25:04;;;;;;;11.83;8.63;;;;;;;;;;5022370;28;20232;-81
2021/08/30 04:27:29;;;;;;;9.10;8.10;;;;;;;;;;5023505;28;20179;-80
2021/08/30 04:29:55;;;;;;;12.83;8.70;;;;;;;;;;5023913;28;20776;-80
2021/08/30 04:32:20;;;;;;;11.10;8.50;;;;;;;;;;5023893;28;20207;-80
2021/08/30 04:34:45;;;;;;;10.47;8.73;;;;;;;;;;5023360;28;20605;-81
2021/08/30 04:37:11;;;;;;;9.63;8.53;;;;;;;;;;5021068;28;20232;-81
2021/08/30 04:39:36;;;;;;;10.97;8.80;;;;;;;;;;5022097;28;20724;-81
2021/08/30 04:42:03;;;;;;;10.67;8.53;;;;;;;;;;5022209;28;20176;-81
2021/08/30 04:44:29;;;;;;;13.80;8.40;;;;;;;;;;5021885;28;20757;-80
2021/08/30 04:46:54;;;;;;;11.07;8.93;;;;;;;;;;5020956;28;20409;-81
2021/08/30 04:49:19;;;;;;;12.00;8.90;;;;;;;;;;5021815;28;20574;-81
2021/08/30 04:51:45;;;;;;;9.30;8.30;;;;;;;;;;5022249;28;20239;-81
2021/08/30 04:54:10;;;;;;;9.47;8.50;;;;;;;;;;5021617;28;20177;-81
2021/08/30 04:56:35;;;;;;;10.63;8.40;;;;;;;;;;5021742;28;20657;-81
2021/08/30 04:59:00;;;;;;;11.40;8.17;;;;;;;;;;5021826;28;20545;-81
2021/08/30 05:01:26;;;;;;;10.77;8.30;;;;;;;;;;5022932;28;20179;-81
2021/08/30 05:03:52;;;;;;;9.17;7.93;;;;;;;;;;5022115;28;20161;-81
2021/08/30 05:06:17;;;;;;;11.60;9.00;;;;;;;;;;5022091;28;20188;-81
2021/08/30 05:08:43;;;;;;;9.37;8.40;;;;;;;;;;5022301;28;20416;-80
2021/08/30 05:11:08;;;;;;;9.30;8.10;;;;;;;;;;5022753;28;20173;-81
2021/08/30 05:13:33;;;;;;;10.40;7.80;;;;;;;;;;5022964;28;20649;-81
2021/08/30 05:15:58;;;;;;;10.10;7.87;;;;;;;;;;5022382;28;20221;-80
2021/08/30 05:18:23;;;;;;;9.37;7.97;;;;;;;;;;5025448;28;20830;-80
2021/08/30 05:20:50;;;;;;;10.23;8.40;;;;;;;;;;5021639;28;20165;-80
2021/08/30 05:23:16;;;;;;;10.90;8.77;;;;;;;;;;5022806;28;20169;-80
2021/08/30 05:25:41;;;;;;;10.43;8.20;;;;;;;;;;5023301;28;20448;-80
2021/08/30 05:28:06;;;;;;;11.53;8.07;;;;;;;;;;5022596;28;20407;-80
2021/08/30 05:30:31;;;;;;;11.10;8.37;;;;;;;;;;5023386;28;20172;-80
2021/08/30 05:32:57;;;;;;;7.63;6.93;;;;;;;;;;5023563;28;20179;-80
2021/08/30 05:35:22;;;;;;;10.10;8.60;;;;;;;;;;5022337;28;20211;-80
2021/08/30 05:37:47;;;;;;;12.53;8.13;;;;;;;;;;5023115;28;20254;-81
2021/08/30 05:40:13;;;;;;;9.40;7.60;;;;;;;;;;5022368;28;20169;-80
2021/08/30 05:42:38;;;;;;;8.93;7.53;;;;;;;;;;5023852;28;20706;-80
2021/08/30 05:45:03;;;;;;;9.10;7.77;;;;;;;;;;5021417;28;20197;-80
2021/08/30 05:47:29;;;;;;;9.67;7.80;;;;;;;;;;5023379;28;20183;-81
2021/08/30 05:49:54;;;;;;;10.30;8.30;;;;;;;;;;5023406;28;20177;-80
2021/08/30 05:52:19;;;;;;;8.30;7.47;;;;;;;;;;5024028;28;20181;-80
2021/08/30 05:54:44;;;;;;;11.10;8.00;;;;;;;;;;5021224;28;20200;-80
2021/08/30 05:57:10;;;;;;;9.60;7.77;;;;;;;;;;5025534;28;20917;-80
2021/08/30 05:59:36;;;;;;;10.67;7.70;;;;;;;;;;5027039;28;20621;-81
2021/08/30 06:02:01;;;;;;;10.33;8.50;;;;;;;;;;5026049;28;20176;-80
2021/08/30 06:04:27;;;;;;;11.33;7.57;;;;;;;;;;5023842;28;20526;-80
2021/08/30 06:06:53;;;;;;;8.37;7.47;;;;;;;;;;5026533;28;20200;-80
2021/08/30 06:09:19;;;;;;;10.33;8.07;;;;;;;;;;5024782;28;20459;-81
2021/08/30 06:11:44;;;;;;;9.07;7.37;;;;;;;;;;5024698;28;20176;-80
2021/08/30 06:14:09;;;;;;;8.93;8.03;;;;;;;;;;5025121;28;20184;-80
2021/08/30 06:16:34;;;;;;;10.53;8.20;;;;;;;;;;5023362;28;20252;-80
2021/08/30 06:18:59;;;;;;;9.27;7.37;;;;;;;;;;5024845;28;20176;-80
2021/08/30 06:21:25;;;;;;;9.53;7.90;;;;;;;;;;5024246;28;20183;-80
2021/08/30 06:23:50;;;;;;;8.67;7.73;;;;;;;;;;5024027;28;20259;-80
2021/08/30 06:26:15;;;;;;;10.10;8.00;;;;;;;;;;5023959;28;20585;-80
2021/08/30 06:28:41;;;;;;;12.00;8.13;;;;;;;;;;5025332;28;20226;-80
2021/08/30 06:31:06;;;;;;;8.80;7.63;;;;;;;;;;5022520;28;20173;-80
2021/08/30 06:33:31;;;;;;;10.00;7.10;;;;;;;;;;5019791;28;20188;-80
2021/08/30 06:35:56;;;;;;;8.43;6.80;;;;;;;;;;5023377;28;20211;-80
2021/08/30 06:38:22;;;;;;;12.37;7.43;;;;;;;;;;5025216;28;20631;-80
2021/08/30 06:40:47;;;;;;;9.33;8.07;;;;;;;;;;5024236;28;20176;-80
2021/08/30 06:43:12;;;;;;;9.97;7.83;;;;;;;;;;5025007;28;20173;-80
2021/08/30 06:45:37;;;;;;;10.50;7.67;;;;;;;;;;5024634;28;20196;-80
2021/08/30 06:48:05;;;;;;;9.63;8.27;;;;;;;;;;5023563;28;20173;-80
2021/08/30 06:50:30;;;;;;;8.90;6.97;;;;;;;;;;5024603;28;20211;-80
2021/08/30 06:52:56;;;;;;;7.83;6.90;;;;;;;;;;5024402;28;20832;-80
2021/08/30 06:55:21;;;;;;;10.63;7.13;;;;;;;;;;5023364;28;21125;-80
2021/08/30 06:57:47;;;;;;;7.70;6.93;;;;;;;;;;5022802;28;20236;-80
2021/08/30 07:00:17;;;;;;;8.37;6.40;;;;;;;;;;5024247;28;20204;-80
2021/08/30 07:02:42;;;;;;;7.07;6.37;;;;;;;;;;5021603;28;20417;-80
2021/08/30 07:05:07;;;;;;;7.13;6.40;;;;;;;;;;5022345;28;20632;-80
2021/08/30 07:07:33;;;;;;;9.53;6.73;;;;;;;;;;5022867;28;20187;-80
2021/08/30 07:09:58;;;;;;;9.23;7.20;;;;;;;;;;5023522;28;20175;-80
2021/08/30 07:12:24;;;;;;;7.03;6.33;;;;;;;;;;5024987;28;20184;-80
2021/08/30 07:14:49;;;;;;;7.40;6.60;;;;;;;;;;5022704;28;20280;-80
2021/08/30 07:17:15;;;;;;;8.87;6.50;;;;;;;;;;5024411;28;20590;-80
2021/08/30 07:19:40;;;;;;;10.80;6.47;;;;;;;;;;5023974;28;20267;-80
2021/08/30 07:22:05;;;;;;;7.13;5.93;;;;;;;;;;5022854;28;20187;-80
2021/08/30 07:24:30;;;;;;;7.20;6.50;;;;;;;;;;5023211;28;20680;-80
2021/08/30 07:26:56;;;;;;;7.07;6.07;;;;;;;;;;5023992;28;20169;-80
2021/08/30 07:29:21;;;;;;;7.23;6.33;;;;;;;;;;5023577;28;20238;-80
2021/08/30 07:31:47;;;;;;;10.40;6.50;;;;;;;;;;5026181;28;20236;-80
2021/08/30 07:34:12;;;;;;;6.80;6.10;;;;;;;;;;5026380;28;20185;-80
2021/08/30 07:36:37;;;;;;;6.50;5.70;;;;;;;;;;5022905;28;20196;-80
2021/08/30 07:39:04;;;;;;;7.43;6.43;;;;;;;;;;5024340;28;20587;-80
2021/08/30 07:41:30;;;;;;;7.47;6.47;;;;;;;;;;5024221;28;20191;-80
2021/08/30 07:43:55;;;;;;;8.10;5.63;;;;;;;;;;5022985;28;20910;-80
2021/08/30 07:46:23;;;;;;;9.30;5.53;;;;;;;;;;5024258;28;20411;-80
2021/08/30 07:48:48;;;;;;;7.50;5.77;;;;;;;;;;5025001;28;20180;-80
2021/08/30 07:51:13;;;;;;;7.83;5.53;;;;;;;;;;5024070;28;20419;-80
2021/08/30 07:53:40;;;;;;;6.40;5.67;;;;;;;;;;5023541;28;20235;-80
2021/08/30 07:56:05;;;;;;;7.77;6.17;;;;;;;;;;5023802;28;20211;-80
2021/08/30 07:58:31;;;;;;;5.40;4.90;;;;;;;;;;5023970;28;20789;-80
2021/08/30 08:00:56;;;;;;;9.20;6.43;;;;;;;;;;5023120;28;20265;-80
2021/08/30 08:03:21;;;;;;;6.43;5.20;;;;;;;;;;5024577;28;20173;-80
2021/08/30 08:05:46;;;;;;;7.20;5.40;;;;;;;;;;5024128;28;20193;-80
2021/08/30 08:08:12;;;;;;;6.60;4.83;;;;;;;;;;5023082;28;20634;-80
2021/08/30 08:10:37;;;;;;;5.90;5.40;;;;;;;;;;5020158;28;20169;-80
2021/08/30 08:13:02;;;;;;;6.60;5.27;;;;;;;;;;5018494;28;20202;-80
2021/08/30 08:15:28;;;;;;;5.77;5.00;;;;;;;;;;5022978;28;20208;-80
2021/08/30 08:17:53;;;;;;;5.90;5.30;;;;;;;;;;5021055;28;20203;-80
2021/08/30 08:20:18;;;;;;;7.67;5.90;;;;;;;;;;5021415;28;20180;-80
2021/08/30 08:22:44;;;;;;;5.57;5.00;;;;;;;;;;5022890;28;20169;-80
2021/08/30 08:25:09;;;;;;;9.20;5.27;;;;;;;;;;5021881;28;20213;-79
2021/08/30 08:27:36;;;;;;;5.90;5.33;;;;;;;;;;5021758;28;20762;-80
2021/08/30 08:30:01;;;;;;;5.10;4.60;;;;;;;;;;5023482;28;20169;-80
2021/08/30 08:32:26;;;;;;;5.57;5.07;;;;;;;;;;5022992;28;20484;-80
2021/08/30 08:34:52;;;;;;;5.00;4.60;;;;;;;;;;5021621;28;20570;-80
2021/08/30 08:37:17;;;;;;;5.40;4.90;;;;;;;;;;5022385;28;20193;-80
2021/08/30 08:39:42;;;;;;;6.40;5.07;;;;;;;;;;5023105;28;20164;-80
2021/08/30 08:42:08;;;;;;;5.17;4.60;;;;;;;;;;5022610;28;20373;-80
2021/08/30 08:44:33;;;;;;;5.53;4.97;;;;;;;;;;5021557;28;20311;-80
2021/08/30 08:47:01;;;;;;;5.33;4.83;;;;;;;;;;5016829;28;20173;-80
2021/08/30 08:49:26;;;;;;;6.30;4.90;;;;;;;;;;5020211;28;20701;-80
2021/08/30 08:51:51;;;;;;;5.23;4.73;;;;;;;;;;5019220;28;20437;-80
2021/08/30 08:54:17;;;;;;;6.93;4.70;;;;;;;;;;5021547;28;20700;-80
2021/08/30 08:56:42;;;;;;;5.10;4.60;;;;;;;;;;5021704;28;20667;-80
2021/08/30 08:59:07;;;;;;;5.07;4.63;;;;;;;;;;5021639;28;20186;-80
2021/08/30 09:01:36;;;;;;;5.07;4.63;;;;;;;;;;5021770;28;20197;-80
2021/08/30 09:04:02;;;;;;;7.97;5.17;;;;;;;;;;5021769;28;20246;-80
2021/08/30 09:06:38;;;;;;;5.67;4.80;;;;;;;;;;5022740;28;20431;-80
2021/08/30 09:09:07;;;;;;;7.07;5.10;;;;;;;;;;5022515;28;20222;-80
2021/08/30 09:11:45;;;;;;;5.60;4.90;;;;;;;;;;5021360;28;20454;-80
2021/08/30 09:14:13;;;;;;;5.90;5.00;;;;;;;;;;5021722;28;20403;-80
2021/08/30 09:16:38;;;;;;;5.30;4.80;;;;;;;;;;5021604;28;20468;-80
2021/08/30 09:19:08;;;;;;;5.70;4.37;;;;;;;;;;5022056;28;20411;-80
2021/08/30 09:21:33;;;;;;;5.10;4.60;;;;;;;;;;5020590;28;20199;-80
2021/08/30 09:24:08;;;;;;;6.27;5.10;;;;;;;;;;5016824;28;20419;-80
2021/08/30 09:26:41;;;;;;;5.73;5.20;;;;;;;;;;5020846;28;20262;-80
2021/08/30 09:29:12;;;;;;;11.27;4.80;;;;;;;;;;5025216;28;20418;-80
2021/08/30 09:31:39;;;;;;;5.07;4.57;;;;;;;;;;5026415;28;20404;-80
2021/08/30 09:34:09;;;;;;;6.40;4.83;;;;;;;;;;5025875;28;20411;-79
2021/08/30 09:36:40;;;;;;;5.23;4.73;;;;;;;;;;5026110;28;20454;-80
2021/08/30 09:39:06;;;;;;;6.50;4.50;;;;;;;;;;5027101;28;20407;-80
2021/08/30 09:41:31;;;;;;;5.83;4.77;;;;;;;;;;5026092;28;20407;-80
2021/08/30 09:44:00;;;;;;;6.87;5.47;;;;;;;;;;5025010;28;20596;-79
2021/08/30 09:46:30;;;;;;;4.90;4.40;;;;;;;;;;5025134;28;20184;-80
2021/08/30 09:49:00;;;;;;;7.07;5.50;;;;;;;;;;5026805;28;20411;-80
2021/08/30 09:51:26;;;;;;;6.80;4.50;;;;;;;;;;5027041;28;21032;-79
2021/08/30 09:53:51;;;;;;;4.37;4.03;;;;;;;;;;5027963;28;20865;-79
2021/08/30 09:56:16;;;;;;;5.00;4.50;;;;;;;;;;5023843;28;20534;-79
2021/08/30 09:58:43;;;;;;;5.93;4.87;;;;;;;;;;5021153;28;20529;-79
2021/08/30 10:01:08;;;;;;;5.30;4.70;;;;;;;;;;5023048;28;20184;-79
2021/08/30 10:03:40;;;;;;;5.83;4.70;;;;;;;;;;5024855;28;20478;-79
2021/08/30 10:06:08;;;;;;;6.90;5.17;;;;;;;;;;5025514;28;20673;-79
2021/08/30 10:08:36;;;;;;;8.50;5.47;;;;;;;;;;5026168;28;20464;-79
2021/08/30 10:11:01;;;;;;;8.37;5.50;;;;;;;;;;5024834;28;20773;-79
2021/08/30 10:13:27;;;;;;;7.97;5.10;;;;;;;;;;5026846;28;20420;-79
2021/08/30 10:15:53;;;;;;;5.10;4.60;;;;;;;;;;5024183;28;20275;-79
2021/08/30 10:18:19;;;;;;;5.47;4.70;;;;;;;;;;5025338;28;20534;-80
2021/08/30 10:20:45;;;;;;;5.53;5.00;;;;;;;;;;5025388;28;20176;-79
2021/08/30 10:23:10;;;;;;;5.97;5.37;;;;;;;;;;5026152;28;20412;-79
2021/08/30 10:25:37;;;;;;;5.83;5.27;;;;;;;;;;5024551;28;20821;-79
2021/08/30 10:28:04;;;;;;;8.10;4.80;;;;;;;;;;5025553;28;20192;-79
2021/08/30 10:30:32;;;;;;;6.13;5.27;;;;;;;;;;5023174;28;20426;-79
2021/08/30 10:32:58;;;;;;;4.67;4.27;;;;;;;;;;5024270;28;20539;-79
2021/08/30 10:35:25;;;;;;;6.87;4.70;;;;;;;;;;5020519;28;20810;-79
2021/08/30 10:37:58;;;;;;;4.53;4.13;;;;;;;;;;5023882;28;20502;-79
2021/08/30 10:40:24;;;;;;;4.60;4.20;;;;;;;;;;5024699;28;20805;-79
2021/08/30 10:42:56;;;;;;;6.60;4.90;;;;;;;;;;5024359;28;20825;-79
2021/08/30 10:45:28;;;;;;;5.43;4.93;;;;;;;;;;5025266;28;20801;-79
2021/08/30 10:47:57;;;;;;;5.50;4.33;;;;;;;;;;5024214;28;20434;-79
2021/08/30 10:50:24;;;;;;;6.13;5.10;;;;;;;;;;5024516;28;20412;-79
2021/08/30 10:52:49;;;;;;;5.67;4.90;;;;;;;;;;5024088;28;20426;-79
2021/08/30 10:55:16;;;;;;;5.10;4.60;;;;;;;;;;5024127;28;20439;-79
2021/08/30 10:57:47;;;;;;;6.00;4.80;;;;;;;;;;5025251;28;20193;-79
2021/08/30 11:00:13;;;;;;;5.23;4.73;;;;;;;;;;5024933;28;20404;-79
2021/08/30 11:02:44;;;;;;;5.50;4.73;;;;;;;;;;5023728;28;20938;-79
2021/08/30 11:05:09;;;;;;;5.13;4.33;;;;;;;;;;5022554;28;20416;-79
2021/08/30 11:07:35;;;;;;;5.30;4.07;;;;;;;;;;5024271;28;20422;-79
2021/08/30 11:10:01;;;;;;;7.10;4.80;;;;;;;;;;5038121;28;20211;-79
2021/08/30 11:12:26;;;;;;;5.17;4.73;;;;;;;;;;5023498;28;20858;-80
2021/08/30 11:14:55;;;;;;;4.60;4.20;;;;;;;;;;5024554;28;20205;-80
2021/08/30 11:17:27;;;;;;;7.03;5.17;;;;;;;;;;5023118;28;20199;-79
2021/08/30 11:19:56;;;;;;;5.23;4.73;;;;;;;;;;5025270;28;20392;-79
2021/08/30 11:22:21;;;;;;;7.93;5.93;;;;;;;;;;5023546;28;20477;-79
2021/08/30 11:24:47;;;;;;;4.77;4.30;;;;;;;;;;5023262;28;20848;-79
2021/08/30 11:27:22;;;;;;;5.33;4.83;;;;;;;;;;5024461;28;20171;-79
2021/08/30 11:29:51;;;;;;;6.50;5.10;;;;;;;;;;5024590;28;20208;-79
2021/08/30 11:32:17;;;;;;;5.17;4.67;;;;;;;;;;5024052;28;20489;-79
2021/08/30 11:34:43;;;;;;;5.40;4.90;;;;;;;;;;5023851;28;20431;-79
2021/08/30 11:37:09;;;;;;;5.40;4.90;;;;;;;;;;5024932;28;20466;-79
2021/08/30 11:39:36;;;;;;;6.50;4.77;;;;;;;;;;5023228;28;20177;-79
2021/08/30 11:42:03;;;;;;;5.33;4.83;;;;;;;;;;5022245;28;20430;-79
2021/08/30 11:44:29;;;;;;;5.50;4.90;;;;;;;;;;5022117;28;20463;-79
2021/08/30 11:46:56;;;;;;;6.00;5.20;;;;;;;;;;5024136;28;20919;-79
2021/08/30 11:49:25;;;;;;;5.37;4.80;;;;;;;;;;5024717;28;20408;-79
2021/08/30 11:51:51;;;;;;;5.33;4.83;;;;;;;;;;5024411;28;20983;-79
2021/08/30 11:54:18;;;;;;;6.17;4.80;;;;;;;;;;5024214;28;20458;-79
2021/08/30 11:57:00;;;;;;;5.33;4.77;;;;;;;;;;5023258;28;20227;-80
2021/08/30 11:59:33;;;;;;;6.00;5.00;;;;;;;;;;5023514;28;20407;-79
2021/08/30 12:01:58;;;;;;;5.23;4.73;;;;;;;;;;5023903;28;20401;-79
2021/08/30 12:04:26;;;;;;;6.07;4.00;;;;;;;;;;5023997;28;20489;-79
2021/08/30 12:06:55;;;;;;;5.10;4.60;;;;;;;;;;5023253;28;20173;-79
2021/08/30 12:09:20;;;;;;;5.10;4.70;;;;;;;;;;5023978;28;20944;-79
2021/08/30 12:11:55;;;;;;;5.30;4.77;;;;;;;;;;5024739;28;20414;-79
2021/08/30 12:14:23;;;;;;;7.17;4.67;;;;;;;;;;5023573;28;20703;-79
2021/08/30 12:16:54;;;;;;;7.57;5.07;;;;;;;;;;5022079;28;20455;-79
2021/08/30 12:19:22;;;;;;;5.47;4.50;;;;;;;;;;5023110;28;20447;-79
2021/08/30 12:21:48;;;;;;;6.63;5.00;;;;;;;;;;5024183;28;20439;-79
2021/08/30 12:24:18;;;;;;;4.40;4.00;;;;;;;;;;5023941;28;20407;-79
2021/08/30 12:26:45;;;;;;;5.20;4.23;;;;;;;;;;5023663;28;20462;-79
2021/08/30 12:29:11;;;;;;;4.97;4.50;;;;;;;;;;5023711;28;20413;-79
2021/08/30 12:31:36;;;;;;;5.30;4.80;;;;;;;;;;5023782;28;20415;-79
2021/08/30 12:34:02;;;;;;;4.87;4.47;;;;;;;;;;5024155;28;20414;-79
2021/08/30 12:36:27;;;;;;;5.70;4.30;;;;;;;;;;5022933;28;20202;-79
2021/08/30 12:38:52;;;;;;;5.20;4.80;;;;;;;;;;5024256;28;20164;-79
2021/08/30 12:41:18;;;;;;;5.97;4.30;;;;;;;;;;5024579;28;20583;-79
2021/08/30 12:43:47;;;;;;;5.80;4.50;;;;;;;;;;5022456;28;20578;-79
2021/08/30 12:46:12;;;;;;;4.33;3.93;;;;;;;;;;5021510;28;20185;-79
2021/08/30 12:48:37;;;;;;;8.40;4.40;;;;;;;;;;5021546;28;20419;-80
2021/08/30 12:51:03;;;;;;;5.43;4.93;;;;;;;;;;5021196;28;20172;-79
2021/08/30 12:53:28;;;;;;;5.53;4.50;;;;;;;;;;5023876;28;21256;-79
2021/08/30 12:55:53;;;;;;;5.57;3.90;;;;;;;;;;5021325;28;20184;-79
2021/08/30 12:58:19;;;;;;;5.07;4.50;;;;;;;;;;5022294;28;20173;-79
2021/08/30 13:00:44;;;;;;;4.77;4.37;;;;;;;;;;5025495;28;20173;-79
2021/08/30 13:03:09;;;;;;;4.33;3.90;;;;;;;;;;5027171;28;20176;-79
2021/08/30 13:05:41;;;;;;;4.00;3.63;;;;;;;;;;5027700;28;20564;-79
2021/08/30 13:08:07;;;;;;;4.67;4.17;;;;;;;;;;5027927;28;20522;-79
2021/08/30 13:10:34;;;;;;;4.67;4.13;;;;;;;;;;5027499;28;20415;-79
2021/08/30 13:12:59;;;;;;;4.40;4.00;;;;;;;;;;5027104;28;20408;-80
2021/08/30 13:15:25;;;;;;;5.10;4.57;;;;;;;;;;5028326;28;20453;-79
2021/08/30 13:17:51;;;;;;;4.40;4.00;;;;;;;;;;5026840;28;20224;-79
2021/08/30 13:20:17;;;;;;;5.97;4.20;;;;;;;;;;5022671;28;20239;-79
2021/08/30 13:22:43;;;;;;;8.03;4.30;;;;;;;;;;5023498;28;20599;-79
2021/08/30 13:25:12;;;;;;;5.60;4.80;;;;;;;;;;5022670;28;20535;-79
2021/08/30 13:27:38;;;;;;;5.40;4.90;;;;;;;;;;5025271;28;20450;-79
2021/08/30 13:30:04;;;;;;;5.20;4.70;;;;;;;;;;5027001;28;20946;-79
2021/08/30 13:32:29;;;;;;;5.67;4.57;;;;;;;;;;5027484;28;20270;-79
2021/08/30 13:34:54;;;;;;;4.67;4.27;;;;;;;;;;5026710;28;20840;-79
2021/08/30 13:37:20;;;;;;;4.53;4.13;;;;;;;;;;5026870;28;20193;-79
2021/08/30 13:39:45;;;;;;;4.20;3.80;;;;;;;;;;5025641;28;20172;-79
2021/08/30 13:42:10;;;;;;;4.83;4.27;;;;;;;;;;5027554;28;20174;-79
2021/08/30 13:44:36;;;;;;;9.10;4.40;;;;;;;;;;5026324;28;20212;-79
2021/08/30 13:47:01;;;;;;;5.80;4.43;;;;;;;;;;5027397;28;20874;-79
2021/08/30 13:49:26;;;;;;;7.07;4.80;;;;;;;;;;5026687;28;20177;-79
2021/08/30 13:51:51;;;;;;;4.73;4.10;;;;;;;;;;5027093;28;20170;-79
2021/08/30 13:54:17;;;;;;;7.27;3.80;;;;;;;;;;5026925;28;20561;-79
2021/08/30 13:56:42;;;;;;;4.97;4.17;;;;;;;;;;5023613;28;20255;-79
2021/08/30 13:59:07;;;;;;;5.80;4.80;;;;;;;;;;5025042;28;20169;-79
2021/08/30 14:01:32;;;;;;;4.73;4.30;;;;;;;;;;5024658;28;20211;-79
2021/08/30 14:03:58;;;;;;;7.53;4.70;;;;;;;;;;5025774;28;20170;-79
2021/08/30 14:06:23;;;;;;;4.83;4.33;;;;;;;;;;5022489;28;20217;-79
2021/08/30 14:08:48;;;;;;;5.57;4.57;;;;;;;;;;5026989;28;21099;-79
2021/08/30 14:11:14;;;;;;;5.17;4.67;;;;;;;;;;5024788;28;20205;-79
2021/08/30 14:13:39;;;;;;;7.17;4.50;;;;;;;;;;5027082;28;20184;-79
2021/08/30 14:16:04;;;;;;;4.93;4.40;;;;;;;;;;5025266;28;20678;-79
2021/08/30 14:18:30;;;;;;;5.90;4.43;;;;;;;;;;5026177;28;20639;-79
2021/08/30 14:20:55;;;;;;;3.83;3.53;;;;;;;;;;5025557;28;20172;-79
2021/08/30 14:23:20;;;;;;;6.37;4.60;;;;;;;;;;5026437;28;20179;-79
2021/08/30 14:25:46;;;;;;;5.17;4.67;;;;;;;;;;5026437;28;20673;-79
2021/08/30 14:28:11;;;;;;;6.27;4.70;;;;;;;;;;5026272;28;20586;-79
2021/08/30 14:30:37;;;;;;;4.50;4.10;;;;;;;;;;5022339;28;20205;-79
2021/08/30 14:33:02;;;;;;;4.73;4.23;;;;;;;;;;5023013;28;20180;-79
2021/08/30 14:35:27;;;;;;;5.20;4.70;;;;;;;;;;5021980;28;20676;-79